sensor_id;sensor_type;location;lat;lon;timestamp;P1;durP1;ratioP1;P2;durP2;ratioP2
61407;SDS011;47274;43.054;25.146;2023-02-13T20:22:36;42.00;;;25.57;;
61407;SDS011;47274;43.054;25.146;2023-02-13T20:25:03;43.97;;;26.07;;
61407;SDS011;47274;43.054;25.146;2023-02-13T20:27:34;45.17;;;24.63;;
61407;SDS011;47274;43.054;25.146;2023-02-13T20:30:01;41.10;;;24.60;;
61407;SDS011;47274;43.054;25.146;2023-02-13T20:32:29;45.90;;;26.83;;
61407;SDS011;47274;43.054;25.146;2023-02-13T20:34:55;47.00;;;28.37;;
61407;SDS011;47274;43.054;25.146;2023-02-13T20:37:21;47.50;;;28.27;;
61407;SDS011;47274;43.054;25.146;2023-02-13T20:39:49;47.20;;;28.87;;
61407;SDS011;47274;43.054;25.146;2023-02-13T20:42:15;50.07;;;31.37;;
61407;SDS011;47274;43.054;25.146;2023-02-13T20:44:41;45.40;;;28.17;;
61407;SDS011;47274;43.054;25.146;2023-02-13T20:47:08;50.50;;;30.30;;
61407;SDS011;47274;43.054;25.146;2023-02-13T20:49:34;48.30;;;28.43;;
61407;SDS011;47274;43.054;25.146;2023-02-13T20:52:02;46.67;;;28.50;;
61407;SDS011;47274;43.054;25.146;2023-02-13T20:54:30;43.37;;;27.73;;
61407;SDS011;47274;43.054;25.146;2023-02-13T20:56:56;43.80;;;26.23;;
61407;SDS011;47274;43.054;25.146;2023-02-13T20:59:22;45.37;;;26.50;;
61407;SDS011;47274;43.054;25.146;2023-02-13T21:01:51;44.73;;;26.63;;
61407;SDS011;47274;43.054;25.146;2023-02-13T21:04:17;44.33;;;26.53;;
61407;SDS011;47274;43.054;25.146;2023-02-13T21:06:46;43.27;;;25.77;;
61407;SDS011;47274;43.054;25.146;2023-02-13T21:09:14;43.83;;;25.53;;
61407;SDS011;47274;43.054;25.146;2023-02-13T21:11:42;39.20;;;24.77;;
61407;SDS011;47274;43.054;25.146;2023-02-13T21:14:10;39.63;;;25.63;;
61407;SDS011;47274;43.054;25.146;2023-02-13T21:16:38;41.07;;;25.17;;
61407;SDS011;47274;43.054;25.146;2023-02-13T21:19:16;42.23;;;24.13;;
61407;SDS011;47274;43.054;25.146;2023-02-13T21:21:43;43.80;;;26.77;;
61407;SDS011;47274;43.054;25.146;2023-02-13T21:24:19;45.50;;;27.37;;
61407;SDS011;47274;43.054;25.146;2023-02-13T21:26:49;44.43;;;25.47;;
61407;SDS011;47274;43.054;25.146;2023-02-13T21:29:18;41.00;;;24.80;;
61407;SDS011;47274;43.054;25.146;2023-02-13T21:31:44;42.83;;;25.40;;
61407;SDS011;47274;43.054;25.146;2023-02-13T21:34:15;42.20;;;25.07;;
61407;SDS011;47274;43.054;25.146;2023-02-13T21:36:43;42.50;;;24.43;;
61407;SDS011;47274;43.054;25.146;2023-02-13T21:39:10;40.37;;;23.97;;
61407;SDS011;47274;43.054;25.146;2023-02-13T21:41:38;41.87;;;24.47;;
61407;SDS011;47274;43.054;25.146;2023-02-13T21:44:05;41.37;;;24.80;;
61407;SDS011;47274;43.054;25.146;2023-02-13T21:46:35;40.53;;;23.07;;
61407;SDS011;47274;43.054;25.146;2023-02-13T21:49:02;49.13;;;31.40;;
61407;SDS011;47274;43.054;25.146;2023-02-13T21:51:30;61.63;;;36.53;;
61407;SDS011;47274;43.054;25.146;2023-02-13T21:54:00;58.30;;;35.53;;
61407;SDS011;47274;43.054;25.146;2023-02-13T21:56:29;52.60;;;31.33;;
61407;SDS011;47274;43.054;25.146;2023-02-13T21:58:59;52.93;;;32.83;;
61407;SDS011;47274;43.054;25.146;2023-02-13T22:01:33;54.77;;;33.20;;
61407;SDS011;47274;43.054;25.146;2023-02-13T22:04:04;42.93;;;25.83;;
61407;SDS011;47274;43.054;25.146;2023-02-13T22:06:32;43.50;;;27.23;;
61407;SDS011;47274;43.054;25.146;2023-02-13T22:09:06;41.17;;;24.80;;
61407;SDS011;47274;43.054;25.146;2023-02-13T22:11:36;39.20;;;24.97;;
61407;SDS011;47274;43.054;25.146;2023-02-13T22:14:04;40.17;;;24.43;;
61407;SDS011;47274;43.054;25.146;2023-02-13T22:16:32;40.57;;;23.37;;
61407;SDS011;47274;43.054;25.146;2023-02-13T22:19:01;39.73;;;23.43;;
61407;SDS011;47274;43.054;25.146;2023-02-13T22:21:29;39.23;;;23.50;;
61407;SDS011;47274;43.054;25.146;2023-02-13T22:23:56;38.63;;;23.07;;
61407;SDS011;47274;43.054;25.146;2023-02-13T22:26:29;39.67;;;23.70;;
61407;SDS011;47274;43.054;25.146;2023-02-13T22:28:58;38.33;;;21.83;;
61407;SDS011;47274;43.054;25.146;2023-02-13T22:31:26;38.53;;;22.37;;
61407;SDS011;47274;43.054;25.146;2023-02-13T22:33:55;38.30;;;23.60;;
61407;SDS011;47274;43.054;25.146;2023-02-13T22:36:21;38.27;;;23.60;;
61407;SDS011;47274;43.054;25.146;2023-02-13T22:38:47;39.37;;;23.90;;
61407;SDS011;47274;43.054;25.146;2023-02-13T22:41:17;38.80;;;23.63;;
61407;SDS011;47274;43.054;25.146;2023-02-13T22:43:50;41.30;;;24.33;;
61407;SDS011;47274;43.054;25.146;2023-02-13T22:46:18;36.77;;;21.50;;
61407;SDS011;47274;43.054;25.146;2023-02-13T22:48:48;38.47;;;23.67;;
61407;SDS011;47274;43.054;25.146;2023-02-13T22:51:18;38.87;;;22.70;;
61407;SDS011;47274;43.054;25.146;2023-02-13T22:53:53;40.80;;;24.00;;
61407;SDS011;47274;43.054;25.146;2023-02-13T22:56:22;36.97;;;21.03;;
61407;SDS011;47274;43.054;25.146;2023-02-13T22:58:48;36.90;;;21.60;;
61407;SDS011;47274;43.054;25.146;2023-02-13T23:01:19;38.47;;;21.93;;
61407;SDS011;47274;43.054;25.146;2023-02-13T23:03:46;34.47;;;19.20;;
61407;SDS011;47274;43.054;25.146;2023-02-13T23:06:13;37.40;;;21.77;;
61407;SDS011;47274;43.054;25.146;2023-02-13T23:08:39;32.40;;;17.77;;
61407;SDS011;47274;43.054;25.146;2023-02-13T23:11:11;33.60;;;19.47;;
61407;SDS011;47274;43.054;25.146;2023-02-13T23:14:01;32.17;;;18.30;;
61407;SDS011;47274;43.054;25.146;2023-02-13T23:16:29;33.77;;;19.57;;
61407;SDS011;47274;43.054;25.146;2023-02-13T23:19:19;33.73;;;18.57;;
61407;SDS011;47274;43.054;25.146;2023-02-13T23:21:47;31.10;;;17.77;;
61407;SDS011;47274;43.054;25.146;2023-02-13T23:24:15;31.60;;;17.20;;
61407;SDS011;47274;43.054;25.146;2023-02-13T23:26:41;31.70;;;18.50;;
61407;SDS011;47274;43.054;25.146;2023-02-13T23:29:08;28.73;;;16.40;;
61407;SDS011;47274;43.054;25.146;2023-02-13T23:31:34;28.83;;;16.10;;
61407;SDS011;47274;43.054;25.146;2023-02-13T23:34:00;29.87;;;16.67;;
61407;SDS011;47274;43.054;25.146;2023-02-13T23:36:26;28.73;;;15.90;;
61407;SDS011;47274;43.054;25.146;2023-02-13T23:38:53;28.07;;;16.17;;
61407;SDS011;47274;43.054;25.146;2023-02-13T23:41:18;30.93;;;17.07;;
61407;SDS011;47274;43.054;25.146;2023-02-13T23:43:44;30.13;;;16.83;;
61407;SDS011;47274;43.054;25.146;2023-02-13T23:46:10;27.97;;;15.30;;
61407;SDS011;47274;43.054;25.146;2023-02-13T23:48:36;31.97;;;18.73;;
61407;SDS011;47274;43.054;25.146;2023-02-13T23:51:02;37.10;;;20.30;;
61407;SDS011;47274;43.054;25.146;2023-02-13T23:53:28;34.43;;;19.67;;
61407;SDS011;47274;43.054;25.146;2023-02-13T23:55:54;35.27;;;20.27;;
61407;SDS011;47274;43.054;25.146;2023-02-13T23:58:20;36.87;;;21.57;;
